sensor_id;sensor_type;location;lat;lon;timestamp;temperature;humidity
4749;DHT22;2388;53.582;9.962;2022-07-06T00:01:47;16.70;99.90
4749;DHT22;2388;53.582;9.962;2022-07-06T00:04:12;16.70;99.90
4749;DHT22;2388;53.582;9.962;2022-07-06T00:06:38;16.60;99.90
4749;DHT22;2388;53.582;9.962;2022-07-06T00:09:04;16.70;99.90
4749;DHT22;2388;53.582;9.962;2022-07-06T00:11:30;16.70;99.90
4749;DHT22;2388;53.582;9.962;2022-07-06T00:13:56;16.70;99.90
4749;DHT22;2388;53.582;9.962;2022-07-06T00:16:24;16.80;99.90
4749;DHT22;2388;53.582;9.962;2022-07-06T00:18:50;16.70;99.90
4749;DHT22;2388;53.582;9.962;2022-07-06T00:21:16;16.70;99.90
4749;DHT22;2388;53.582;9.962;2022-07-06T00:23:42;17.10;99.90
4749;DHT22;2388;53.582;9.962;2022-07-06T00:26:07;16.70;99.90
4749;DHT22;2388;53.582;9.962;2022-07-06T00:28:33;16.60;99.90
4749;DHT22;2388;53.582;9.962;2022-07-06T00:30:58;16.50;99.90
4749;DHT22;2388;53.582;9.962;2022-07-06T00:33:23;16.50;99.90
4749;DHT22;2388;53.582;9.962;2022-07-06T00:35:49;16.40;99.90
4749;DHT22;2388;53.582;9.962;2022-07-06T00:38:15;16.40;99.90
4749;DHT22;2388;53.582;9.962;2022-07-06T00:40:40;16.40;99.90
4749;DHT22;2388;53.582;9.962;2022-07-06T00:43:06;16.40;99.90
4749;DHT22;2388;53.582;9.962;2022-07-06T00:45:32;16.40;99.90
4749;DHT22;2388;53.582;9.962;2022-07-06T00:47:57;16.40;99.90
4749;DHT22;2388;53.582;9.962;2022-07-06T00:50:23;16.40;99.90
4749;DHT22;2388;53.582;9.962;2022-07-06T00:55:18;16.40;99.90
4749;DHT22;2388;53.582;9.962;2022-07-06T00:57:44;16.40;99.90
4749;DHT22;2388;53.582;9.962;2022-07-06T01:00:12;16.30;99.90
4749;DHT22;2388;53.582;9.962;2022-07-06T01:02:38;16.40;99.90
4749;DHT22;2388;53.582;9.962;2022-07-06T01:05:05;16.40;99.90
4749;DHT22;2388;53.582;9.962;2022-07-06T01:07:31;16.30;99.90
4749;DHT22;2388;53.582;9.962;2022-07-06T01:09:57;16.30;99.90
4749;DHT22;2388;53.582;9.962;2022-07-06T01:12:23;16.30;99.90
4749;DHT22;2388;53.582;9.962;2022-07-06T01:14:49;16.80;99.90
4749;DHT22;2388;53.582;9.962;2022-07-06T01:17:15;16.30;99.90
4749;DHT22;2388;53.582;9.962;2022-07-06T01:19:41;16.20;99.90
4749;DHT22;2388;53.582;9.962;2022-07-06T01:22:07;16.20;99.90
4749;DHT22;2388;53.582;9.962;2022-07-06T01:24:36;16.20;99.90
4749;DHT22;2388;53.582;9.962;2022-07-06T01:27:04;16.20;99.90
4749;DHT22;2388;53.582;9.962;2022-07-06T01:29:31;16.30;99.90
4749;DHT22;2388;53.582;9.962;2022-07-06T01:31:56;16.30;99.90
4749;DHT22;2388;53.582;9.962;2022-07-06T01:34:22;16.30;99.90
4749;DHT22;2388;53.582;9.962;2022-07-06T01:36:47;16.30;99.90
4749;DHT22;2388;53.582;9.962;2022-07-06T01:39:13;16.20;99.90
4749;DHT22;2388;53.582;9.962;2022-07-06T01:41:39;16.20;99.90
4749;DHT22;2388;53.582;9.962;2022-07-06T01:44:05;16.10;99.90
4749;DHT22;2388;53.582;9.962;2022-07-06T01:46:30;16.20;99.90
4749;DHT22;2388;53.582;9.962;2022-07-06T01:48:56;16.10;99.90
4749;DHT22;2388;53.582;9.962;2022-07-06T01:51:22;16.10;99.90
4749;DHT22;2388;53.582;9.962;2022-07-06T01:53:48;16.20;99.90
4749;DHT22;2388;53.582;9.962;2022-07-06T01:56:14;16.20;99.90
4749;DHT22;2388;53.582;9.962;2022-07-06T01:58:39;16.20;99.90
4749;DHT22;2388;53.582;9.962;2022-07-06T02:01:13;16.20;99.90
4749;DHT22;2388;53.582;9.962;2022-07-06T02:03:39;16.20;99.90
4749;DHT22;2388;53.582;9.962;2022-07-06T02:06:06;16.10;99.90
4749;DHT22;2388;53.582;9.962;2022-07-06T02:08:32;16.10;99.90
4749;DHT22;2388;53.582;9.962;2022-07-06T02:10:58;16.10;99.90
4749;DHT22;2388;53.582;9.962;2022-07-06T02:13:24;16.10;99.90
4749;DHT22;2388;53.582;9.962;2022-07-06T02:15:50;16.10;99.90
4749;DHT22;2388;53.582;9.962;2022-07-06T02:18:15;16.20;99.90
4749;DHT22;2388;53.582;9.962;2022-07-06T02:20:41;16.20;99.90
4749;DHT22;2388;53.582;9.962;2022-07-06T02:23:06;16.20;99.90
4749;DHT22;2388;53.582;9.962;2022-07-06T02:25:32;16.20;99.90
4749;DHT22;2388;53.582;9.962;2022-07-06T02:27:57;16.20;99.90
4749;DHT22;2388;53.582;9.962;2022-07-06T02:30:23;16.20;99.90
4749;DHT22;2388;53.582;9.962;2022-07-06T02:32:48;16.10;99.90
4749;DHT22;2388;53.582;9.962;2022-07-06T02:35:14;16.20;99.90
4749;DHT22;2388;53.582;9.962;2022-07-06T02:37:40;16.20;99.90
4749;DHT22;2388;53.582;9.962;2022-07-06T02:40:06;16.20;99.90
4749;DHT22;2388;53.582;9.962;2022-07-06T02:42:32;16.20;99.90
4749;DHT22;2388;53.582;9.962;2022-07-06T02:44:57;16.10;99.90
4749;DHT22;2388;53.582;9.962;2022-07-06T02:47:23;16.10;99.90
4749;DHT22;2388;53.582;9.962;2022-07-06T02:49:48;16.10;99.90
4749;DHT22;2388;53.582;9.962;2022-07-06T02:52:14;16.00;99.90
4749;DHT22;2388;53.582;9.962;2022-07-06T02:54:39;16.00;99.90
4749;DHT22;2388;53.582;9.962;2022-07-06T02:57:05;16.00;99.90
4749;DHT22;2388;53.582;9.962;2022-07-06T02:59:30;15.90;99.90
4749;DHT22;2388;53.582;9.962;2022-07-06T03:01:56;15.80;99.90
4749;DHT22;2388;53.582;9.962;2022-07-06T03:04:21;15.80;99.90
4749;DHT22;2388;53.582;9.962;2022-07-06T03:06:47;15.70;99.90
4749;DHT22;2388;53.582;9.962;2022-07-06T03:09:12;15.70;99.90
4749;DHT22;2388;53.582;9.962;2022-07-06T03:11:38;15.70;99.90
4749;DHT22;2388;53.582;9.962;2022-07-06T03:14:04;15.70;99.90
4749;DHT22;2388;53.582;9.962;2022-07-06T03:16:30;15.60;99.90
4749;DHT22;2388;53.582;9.962;2022-07-06T03:18:56;15.60;99.90
4749;DHT22;2388;53.582;9.962;2022-07-06T03:21:22;15.60;99.90
4749;DHT22;2388;53.582;9.962;2022-07-06T03:23:47;15.50;99.90
4749;DHT22;2388;53.582;9.962;2022-07-06T03:26:13;15.50;99.90
4749;DHT22;2388;53.582;9.962;2022-07-06T03:28:38;15.50;99.90
4749;DHT22;2388;53.582;9.962;2022-07-06T03:31:04;15.50;99.90
4749;DHT22;2388;53.582;9.962;2022-07-06T03:33:29;15.50;99.90
4749;DHT22;2388;53.582;9.962;2022-07-06T03:35:55;15.50;99.90
4749;DHT22;2388;53.582;9.962;2022-07-06T03:38:20;15.50;99.90
4749;DHT22;2388;53.582;9.962;2022-07-06T03:40:46;15.50;99.90
4749;DHT22;2388;53.582;9.962;2022-07-06T03:43:11;15.40;99.90
4749;DHT22;2388;53.582;9.962;2022-07-06T03:45:37;15.40;99.90
4749;DHT22;2388;53.582;9.962;2022-07-06T03:48:02;15.40;99.90
4749;DHT22;2388;53.582;9.962;2022-07-06T03:50:29;15.40;99.90
4749;DHT22;2388;53.582;9.962;2022-07-06T03:52:54;15.50;99.90
4749;DHT22;2388;53.582;9.962;2022-07-06T03:55:20;15.50;99.90
4749;DHT22;2388;53.582;9.962;2022-07-06T03:57:45;15.50;99.90
4749;DHT22;2388;53.582;9.962;2022-07-06T04:00:11;15.50;99.90
4749;DHT22;2388;53.582;9.962;2022-07-06T04:02:37;15.60;99.90
4749;DHT22;2388;53.582;9.962;2022-07-06T04:05:02;15.50;99.90
4749;DHT22;2388;53.582;9.962;2022-07-06T04:07:28;15.60;99.90
4749;DHT22;2388;53.582;9.962;2022-07-06T04:09:54;15.50;99.90
4749;DHT22;2388;53.582;9.962;2022-07-06T04:12:19;15.40;99.90
4749;DHT22;2388;53.582;9.962;2022-07-06T04:14:44;15.40;99.90
4749;DHT22;2388;53.582;9.962;2022-07-06T04:17:10;15.30;99.90
4749;DHT22;2388;53.582;9.962;2022-07-06T04:23:16;15.40;99.90
4749;DHT22;2388;53.582;9.962;2022-07-06T04:25:42;15.40;99.90
4749;DHT22;2388;53.582;9.962;2022-07-06T04:28:08;15.40;99.90
4749;DHT22;2388;53.582;9.962;2022-07-06T04:30:33;15.40;99.90
4749;DHT22;2388;53.582;9.962;2022-07-06T04:32:59;15.40;99.90
4749;DHT22;2388;53.582;9.962;2022-07-06T04:35:24;15.40;99.90
4749;DHT22;2388;53.582;9.962;2022-07-06T04:37:50;15.40;99.90
4749;DHT22;2388;53.582;9.962;2022-07-06T04:40:15;15.30;99.90
4749;DHT22;2388;53.582;9.962;2022-07-06T04:42:41;15.30;99.90
4749;DHT22;2388;53.582;9.962;2022-07-06T04:45:07;15.40;99.90
4749;DHT22;2388;53.582;9.962;2022-07-06T04:47:33;15.50;99.90
4749;DHT22;2388;53.582;9.962;2022-07-06T04:50:00;15.50;99.90
4749;DHT22;2388;53.582;9.962;2022-07-06T04:52:25;15.60;99.90
4749;DHT22;2388;53.582;9.962;2022-07-06T04:54:51;15.50;99.90
4749;DHT22;2388;53.582;9.962;2022-07-06T04:57:16;15.60;99.90
4749;DHT22;2388;53.582;9.962;2022-07-06T04:59:42;15.60;99.90
4749;DHT22;2388;53.582;9.962;2022-07-06T05:02:07;15.60;99.90
4749;DHT22;2388;53.582;9.962;2022-07-06T05:04:33;15.70;99.90
4749;DHT22;2388;53.582;9.962;2022-07-06T05:06:59;15.70;99.90
4749;DHT22;2388;53.582;9.962;2022-07-06T05:09:24;15.70;99.90
4749;DHT22;2388;53.582;9.962;2022-07-06T05:11:50;15.70;99.90
4749;DHT22;2388;53.582;9.962;2022-07-06T05:14:16;15.70;99.90
4749;DHT22;2388;53.582;9.962;2022-07-06T05:16:41;15.70;99.90
4749;DHT22;2388;53.582;9.962;2022-07-06T05:19:07;15.70;99.90
4749;DHT22;2388;53.582;9.962;2022-07-06T05:21:32;15.70;99.90
4749;DHT22;2388;53.582;9.962;2022-07-06T05:23:58;15.70;99.90
4749;DHT22;2388;53.582;9.962;2022-07-06T05:26:23;15.70;99.90
4749;DHT22;2388;53.582;9.962;2022-07-06T05:28:49;15.70;99.90
4749;DHT22;2388;53.582;9.962;2022-07-06T05:31:14;15.70;99.90
4749;DHT22;2388;53.582;9.962;2022-07-06T05:33:40;15.60;99.90
4749;DHT22;2388;53.582;9.962;2022-07-06T05:36:06;15.60;99.90
4749;DHT22;2388;53.582;9.962;2022-07-06T05:38:32;15.60;99.90
4749;DHT22;2388;53.582;9.962;2022-07-06T05:40:58;15.60;99.90
4749;DHT22;2388;53.582;9.962;2022-07-06T05:43:23;15.70;99.90
4749;DHT22;2388;53.582;9.962;2022-07-06T05:45:49;15.60;99.90
4749;DHT22;2388;53.582;9.962;2022-07-06T05:48:14;15.70;99.90
4749;DHT22;2388;53.582;9.962;2022-07-06T05:50:59;15.70;99.90
4749;DHT22;2388;53.582;9.962;2022-07-06T05:53:24;15.70;99.90
4749;DHT22;2388;53.582;9.962;2022-07-06T05:55:50;15.70;99.90
4749;DHT22;2388;53.582;9.962;2022-07-06T05:58:16;15.70;99.90
4749;DHT22;2388;53.582;9.962;2022-07-06T06:00:41;15.80;99.90
4749;DHT22;2388;53.582;9.962;2022-07-06T06:03:07;15.80;99.90
4749;DHT22;2388;53.582;9.962;2022-07-06T06:05:32;15.90;99.90
4749;DHT22;2388;53.582;9.962;2022-07-06T06:07:58;15.90;99.90
4749;DHT22;2388;53.582;9.962;2022-07-06T06:10:24;15.90;99.90
4749;DHT22;2388;53.582;9.962;2022-07-06T06:12:50;16.00;99.90
4749;DHT22;2388;53.582;9.962;2022-07-06T06:15:16;16.00;99.90
4749;DHT22;2388;53.582;9.962;2022-07-06T06:17:41;16.00;99.90
4749;DHT22;2388;53.582;9.962;2022-07-06T06:20:09;16.00;99.90
4749;DHT22;2388;53.582;9.962;2022-07-06T06:22:45;16.00;99.90
4749;DHT22;2388;53.582;9.962;2022-07-06T06:25:12;16.00;99.90
4749;DHT22;2388;53.582;9.962;2022-07-06T06:27:37;16.00;99.90
4749;DHT22;2388;53.582;9.962;2022-07-06T06:30:03;16.10;99.90
4749;DHT22;2388;53.582;9.962;2022-07-06T06:32:29;16.10;99.90
4749;DHT22;2388;53.582;9.962;2022-07-06T06:34:54;16.00;99.90
4749;DHT22;2388;53.582;9.962;2022-07-06T06:37:20;16.00;99.90
4749;DHT22;2388;53.582;9.962;2022-07-06T06:39:45;16.10;99.90
4749;DHT22;2388;53.582;9.962;2022-07-06T06:42:11;16.10;99.90
4749;DHT22;2388;53.582;9.962;2022-07-06T06:44:36;16.20;99.90
4749;DHT22;2388;53.582;9.962;2022-07-06T06:47:02;16.20;99.90
4749;DHT22;2388;53.582;9.962;2022-07-06T06:49:27;16.20;99.90
4749;DHT22;2388;53.582;9.962;2022-07-06T06:51:53;16.20;99.90
4749;DHT22;2388;53.582;9.962;2022-07-06T06:54:18;16.30;99.90
4749;DHT22;2388;53.582;9.962;2022-07-06T06:56:44;16.30;99.90
4749;DHT22;2388;53.582;9.962;2022-07-06T06:59:09;16.30;99.90
4749;DHT22;2388;53.582;9.962;2022-07-06T07:01:35;16.30;99.90
4749;DHT22;2388;53.582;9.962;2022-07-06T07:04:00;16.30;99.90
4749;DHT22;2388;53.582;9.962;2022-07-06T07:06:26;16.30;99.90
4749;DHT22;2388;53.582;9.962;2022-07-06T07:08:51;16.30;99.90
4749;DHT22;2388;53.582;9.962;2022-07-06T07:11:17;16.20;99.90
4749;DHT22;2388;53.582;9.962;2022-07-06T07:13:42;16.30;99.90
4749;DHT22;2388;53.582;9.962;2022-07-06T07:16:08;16.40;99.90
4749;DHT22;2388;53.582;9.962;2022-07-06T07:18:33;16.40;99.90
4749;DHT22;2388;53.582;9.962;2022-07-06T07:20:59;16.40;99.90
4749;DHT22;2388;53.582;9.962;2022-07-06T07:23:24;16.50;99.90
4749;DHT22;2388;53.582;9.962;2022-07-06T07:25:50;16.60;99.90
4749;DHT22;2388;53.582;9.962;2022-07-06T07:28:15;16.60;99.90
4749;DHT22;2388;53.582;9.962;2022-07-06T07:30:41;16.60;99.90
4749;DHT22;2388;53.582;9.962;2022-07-06T07:33:06;16.60;99.90
4749;DHT22;2388;53.582;9.962;2022-07-06T07:35:32;16.60;99.90
4749;DHT22;2388;53.582;9.962;2022-07-06T07:37:58;16.60;99.90
4749;DHT22;2388;53.582;9.962;2022-07-06T07:40:23;16.50;99.90
4749;DHT22;2388;53.582;9.962;2022-07-06T07:42:49;16.50;99.90
4749;DHT22;2388;53.582;9.962;2022-07-06T07:45:14;16.50;99.90
4749;DHT22;2388;53.582;9.962;2022-07-06T07:47:40;16.50;99.90
4749;DHT22;2388;53.582;9.962;2022-07-06T07:50:06;16.50;99.90
4749;DHT22;2388;53.582;9.962;2022-07-06T07:52:32;16.50;99.90
4749;DHT22;2388;53.582;9.962;2022-07-06T07:54:58;16.40;99.90
4749;DHT22;2388;53.582;9.962;2022-07-06T07:57:24;16.40;99.90
4749;DHT22;2388;53.582;9.962;2022-07-06T07:59:49;16.40;99.90
4749;DHT22;2388;53.582;9.962;2022-07-06T08:02:15;16.40;99.90
4749;DHT22;2388;53.582;9.962;2022-07-06T08:04:40;16.50;99.90
4749;DHT22;2388;53.582;9.962;2022-07-06T08:07:06;16.50;99.90
4749;DHT22;2388;53.582;9.962;2022-07-06T08:09:33;16.50;99.90
4749;DHT22;2388;53.582;9.962;2022-07-06T08:11:58;16.60;99.90
4749;DHT22;2388;53.582;9.962;2022-07-06T08:14:24;16.60;99.90
4749;DHT22;2388;53.582;9.962;2022-07-06T08:16:50;16.70;99.90
4749;DHT22;2388;53.582;9.962;2022-07-06T08:19:16;16.70;99.90
4749;DHT22;2388;53.582;9.962;2022-07-06T08:21:42;16.60;99.90
4749;DHT22;2388;53.582;9.962;2022-07-06T08:24:09;16.60;99.90
4749;DHT22;2388;53.582;9.962;2022-07-06T08:26:35;16.60;99.90
4749;DHT22;2388;53.582;9.962;2022-07-06T08:29:01;16.50;99.90
4749;DHT22;2388;53.582;9.962;2022-07-06T08:31:27;16.50;99.90
4749;DHT22;2388;53.582;9.962;2022-07-06T08:33:53;16.50;99.90
4749;DHT22;2388;53.582;9.962;2022-07-06T08:36:20;16.40;99.90
4749;DHT22;2388;53.582;9.962;2022-07-06T08:38:46;16.30;99.90
4749;DHT22;2388;53.582;9.962;2022-07-06T08:41:13;16.20;99.90
4749;DHT22;2388;53.582;9.962;2022-07-06T08:43:39;16.10;99.90
4749;DHT22;2388;53.582;9.962;2022-07-06T08:46:07;16.20;99.90
4749;DHT22;2388;53.582;9.962;2022-07-06T08:48:35;16.10;99.90
4749;DHT22;2388;53.582;9.962;2022-07-06T08:51:02;16.20;99.90
4749;DHT22;2388;53.582;9.962;2022-07-06T08:53:28;16.30;99.90
4749;DHT22;2388;53.582;9.962;2022-07-06T08:55:54;16.30;99.90
4749;DHT22;2388;53.582;9.962;2022-07-06T08:58:23;16.40;99.90
4749;DHT22;2388;53.582;9.962;2022-07-06T09:00:49;16.40;99.90
4749;DHT22;2388;53.582;9.962;2022-07-06T09:03:14;16.50;99.90
4749;DHT22;2388;53.582;9.962;2022-07-06T09:05:40;16.60;99.90
4749;DHT22;2388;53.582;9.962;2022-07-06T09:08:11;16.50;99.90
4749;DHT22;2388;53.582;9.962;2022-07-06T09:10:37;16.60;99.90
4749;DHT22;2388;53.582;9.962;2022-07-06T09:13:07;16.60;99.90
4749;DHT22;2388;53.582;9.962;2022-07-06T09:15:34;16.60;99.90
4749;DHT22;2388;53.582;9.962;2022-07-06T09:18:00;16.60;99.90
4749;DHT22;2388;53.582;9.962;2022-07-06T09:20:26;16.60;99.90
4749;DHT22;2388;53.582;9.962;2022-07-06T09:23:00;16.60;99.90
4749;DHT22;2388;53.582;9.962;2022-07-06T09:25:27;16.60;99.90
4749;DHT22;2388;53.582;9.962;2022-07-06T09:27:53;16.60;99.90
4749;DHT22;2388;53.582;9.962;2022-07-06T09:30:23;16.60;99.90
4749;DHT22;2388;53.582;9.962;2022-07-06T09:53:01;17.00;99.90
4749;DHT22;2388;53.582;9.962;2022-07-06T09:55:27;17.10;99.90
4749;DHT22;2388;53.582;9.962;2022-07-06T10:01:40;17.30;99.90
4749;DHT22;2388;53.582;9.962;2022-07-06T10:10:50;17.60;99.90
4749;DHT22;2388;53.582;9.962;2022-07-06T10:13:20;17.60;99.90
4749;DHT22;2388;53.582;9.962;2022-07-06T10:15:47;17.60;99.90
4749;DHT22;2388;53.582;9.962;2022-07-06T10:18:13;17.60;99.90
4749;DHT22;2388;53.582;9.962;2022-07-06T10:20:39;17.50;99.90
4749;DHT22;2388;53.582;9.962;2022-07-06T10:36:44;16.70;99.90
4749;DHT22;2388;53.582;9.962;2022-07-06T10:39:11;16.50;99.90
4749;DHT22;2388;53.582;9.962;2022-07-06T10:41:59;16.40;99.90
4749;DHT22;2388;53.582;9.962;2022-07-06T10:44:26;16.30;99.90
4749;DHT22;2388;53.582;9.962;2022-07-06T10:46:58;17.20;99.90
4749;DHT22;2388;53.582;9.962;2022-07-06T10:49:25;16.20;99.90
4749;DHT22;2388;53.582;9.962;2022-07-06T10:51:51;16.20;99.90
4749;DHT22;2388;53.582;9.962;2022-07-06T10:54:19;16.20;99.90
4749;DHT22;2388;53.582;9.962;2022-07-06T10:56:49;16.20;99.90
4749;DHT22;2388;53.582;9.962;2022-07-06T10:59:20;16.30;99.90
4749;DHT22;2388;53.582;9.962;2022-07-06T11:02:17;16.40;99.90
4749;DHT22;2388;53.582;9.962;2022-07-06T11:04:44;16.50;99.90
4749;DHT22;2388;53.582;9.962;2022-07-06T11:07:12;16.60;99.90
4749;DHT22;2388;53.582;9.962;2022-07-06T11:16:24;16.80;99.90
4749;DHT22;2388;53.582;9.962;2022-07-06T11:22:15;17.20;99.90
4749;DHT22;2388;53.582;9.962;2022-07-06T11:24:41;17.30;99.90
4749;DHT22;2388;53.582;9.962;2022-07-06T11:27:07;17.30;99.90
4749;DHT22;2388;53.582;9.962;2022-07-06T11:29:33;17.50;99.90
4749;DHT22;2388;53.582;9.962;2022-07-06T11:32:00;17.60;99.90
4749;DHT22;2388;53.582;9.962;2022-07-06T11:34:34;17.60;99.90
4749;DHT22;2388;53.582;9.962;2022-07-06T11:37:04;17.60;99.90
4749;DHT22;2388;53.582;9.962;2022-07-06T11:39:31;17.40;99.90
4749;DHT22;2388;53.582;9.962;2022-07-06T11:41:58;17.30;99.90
4749;DHT22;2388;53.582;9.962;2022-07-06T11:44:24;17.40;99.90
4749;DHT22;2388;53.582;9.962;2022-07-06T11:46:50;17.40;99.90
4749;DHT22;2388;53.582;9.962;2022-07-06T11:49:16;17.40;99.90
4749;DHT22;2388;53.582;9.962;2022-07-06T11:51:42;17.40;99.90
4749;DHT22;2388;53.582;9.962;2022-07-06T11:54:16;17.50;99.90
4749;DHT22;2388;53.582;9.962;2022-07-06T11:56:53;17.60;99.90
4749;DHT22;2388;53.582;9.962;2022-07-06T11:59:26;17.70;99.90
4749;DHT22;2388;53.582;9.962;2022-07-06T12:02:06;17.90;99.90
4749;DHT22;2388;53.582;9.962;2022-07-06T12:04:34;18.00;99.90
4749;DHT22;2388;53.582;9.962;2022-07-06T12:07:05;18.20;99.90
4749;DHT22;2388;53.582;9.962;2022-07-06T12:09:37;18.40;99.90
4749;DHT22;2388;53.582;9.962;2022-07-06T12:12:03;18.50;99.90
4749;DHT22;2388;53.582;9.962;2022-07-06T12:14:31;18.70;99.90
4749;DHT22;2388;53.582;9.962;2022-07-06T12:17:03;18.90;99.90
4749;DHT22;2388;53.582;9.962;2022-07-06T12:19:29;18.90;99.90
4749;DHT22;2388;53.582;9.962;2022-07-06T12:21:54;18.90;99.90
4749;DHT22;2388;53.582;9.962;2022-07-06T12:24:22;19.00;99.00
4749;DHT22;2388;53.582;9.962;2022-07-06T12:26:49;19.10;98.10
4749;DHT22;2388;53.582;9.962;2022-07-06T12:29:14;19.40;96.80
4749;DHT22;2388;53.582;9.962;2022-07-06T12:34:18;19.50;95.30
4749;DHT22;2388;53.582;9.962;2022-07-06T12:36:52;19.40;95.50
4749;DHT22;2388;53.582;9.962;2022-07-06T12:39:23;19.40;96.70
4749;DHT22;2388;53.582;9.962;2022-07-06T12:41:53;19.30;96.40
4749;DHT22;2388;53.582;9.962;2022-07-06T12:44:21;19.30;96.30
4749;DHT22;2388;53.582;9.962;2022-07-06T12:46:48;19.50;97.80
4749;DHT22;2388;53.582;9.962;2022-07-06T12:49:22;19.70;96.60
4749;DHT22;2388;53.582;9.962;2022-07-06T12:54:15;19.60;95.60
4749;DHT22;2388;53.582;9.962;2022-07-06T12:57:00;19.40;96.90
4749;DHT22;2388;53.582;9.962;2022-07-06T12:59:27;19.30;96.10
4749;DHT22;2388;53.582;9.962;2022-07-06T13:01:53;19.10;96.10
4749;DHT22;2388;53.582;9.962;2022-07-06T13:04:26;19.20;96.40
4749;DHT22;2388;53.582;9.962;2022-07-06T13:06:52;19.50;97.10
4749;DHT22;2388;53.582;9.962;2022-07-06T13:09:18;19.90;95.40
4749;DHT22;2388;53.582;9.962;2022-07-06T13:11:45;20.40;95.70
4749;DHT22;2388;53.582;9.962;2022-07-06T13:14:11;20.70;94.70
4749;DHT22;2388;53.582;9.962;2022-07-06T13:16:37;20.70;94.90
4749;DHT22;2388;53.582;9.962;2022-07-06T13:19:03;20.50;94.60
4749;DHT22;2388;53.582;9.962;2022-07-06T13:21:28;20.40;94.70
4749;DHT22;2388;53.582;9.962;2022-07-06T13:23:54;20.50;94.00
4749;DHT22;2388;53.582;9.962;2022-07-06T13:26:20;20.40;94.80
4749;DHT22;2388;53.582;9.962;2022-07-06T13:28:45;20.10;94.40
4749;DHT22;2388;53.582;9.962;2022-07-06T13:31:11;19.90;95.00
4749;DHT22;2388;53.582;9.962;2022-07-06T13:33:37;19.80;94.90
4749;DHT22;2388;53.582;9.962;2022-07-06T13:36:02;20.10;95.00
4749;DHT22;2388;53.582;9.962;2022-07-06T13:38:28;20.60;94.30
4749;DHT22;2388;53.582;9.962;2022-07-06T13:40:53;20.80;93.70
4749;DHT22;2388;53.582;9.962;2022-07-06T13:43:19;21.00;93.80
4749;DHT22;2388;53.582;9.962;2022-07-06T13:45:46;21.30;93.50
4749;DHT22;2388;53.582;9.962;2022-07-06T13:48:12;21.60;93.10
4749;DHT22;2388;53.582;9.962;2022-07-06T13:50:38;21.70;89.40
4749;DHT22;2388;53.582;9.962;2022-07-06T13:53:03;21.60;89.20
4749;DHT22;2388;53.582;9.962;2022-07-06T13:55:30;21.60;88.10
4749;DHT22;2388;53.582;9.962;2022-07-06T13:57:55;21.60;88.20
4749;DHT22;2388;53.582;9.962;2022-07-06T14:00:21;21.60;86.90
4749;DHT22;2388;53.582;9.962;2022-07-06T14:02:47;21.50;85.80
4749;DHT22;2388;53.582;9.962;2022-07-06T14:05:12;21.60;88.80
4749;DHT22;2388;53.582;9.962;2022-07-06T14:07:38;21.80;87.40
4749;DHT22;2388;53.582;9.962;2022-07-06T14:10:04;21.70;86.00
4749;DHT22;2388;53.582;9.962;2022-07-06T14:12:29;21.70;87.60
4749;DHT22;2388;53.582;9.962;2022-07-06T14:14:55;21.70;89.10
4749;DHT22;2388;53.582;9.962;2022-07-06T14:17:21;21.60;88.10
4749;DHT22;2388;53.582;9.962;2022-07-06T14:19:48;21.50;85.50
4749;DHT22;2388;53.582;9.962;2022-07-06T14:22:13;21.40;87.20
4749;DHT22;2388;53.582;9.962;2022-07-06T14:24:39;21.30;87.50
4749;DHT22;2388;53.582;9.962;2022-07-06T14:27:04;21.20;86.90
4749;DHT22;2388;53.582;9.962;2022-07-06T14:29:30;21.10;86.80
4749;DHT22;2388;53.582;9.962;2022-07-06T14:31:55;21.10;88.70
4749;DHT22;2388;53.582;9.962;2022-07-06T14:34:21;21.00;86.20
4749;DHT22;2388;53.582;9.962;2022-07-06T14:36:47;20.80;87.00
4749;DHT22;2388;53.582;9.962;2022-07-06T14:39:12;20.80;85.60
4749;DHT22;2388;53.582;9.962;2022-07-06T14:41:38;20.60;85.10
4749;DHT22;2388;53.582;9.962;2022-07-06T14:44:04;20.40;84.80
4749;DHT22;2388;53.582;9.962;2022-07-06T14:46:30;20.30;84.70
4749;DHT22;2388;53.582;9.962;2022-07-06T14:48:56;20.30;86.00
4749;DHT22;2388;53.582;9.962;2022-07-06T14:51:22;20.20;85.10
4749;DHT22;2388;53.582;9.962;2022-07-06T14:53:47;20.20;85.40
4749;DHT22;2388;53.582;9.962;2022-07-06T14:56:13;20.20;87.20
4749;DHT22;2388;53.582;9.962;2022-07-06T14:58:38;20.20;86.90
4749;DHT22;2388;53.582;9.962;2022-07-06T15:01:04;20.20;88.80
4749;DHT22;2388;53.582;9.962;2022-07-06T15:03:29;20.30;89.00
4749;DHT22;2388;53.582;9.962;2022-07-06T15:05:55;20.30;89.50
4749;DHT22;2388;53.582;9.962;2022-07-06T15:08:20;20.30;87.90
4749;DHT22;2388;53.582;9.962;2022-07-06T15:10:46;20.40;87.50
4749;DHT22;2388;53.582;9.962;2022-07-06T15:13:12;20.40;89.40
4749;DHT22;2388;53.582;9.962;2022-07-06T15:15:37;20.40;90.70
4749;DHT22;2388;53.582;9.962;2022-07-06T15:18:03;20.20;90.20
4749;DHT22;2388;53.582;9.962;2022-07-06T15:20:29;20.20;90.30
4749;DHT22;2388;53.582;9.962;2022-07-06T15:22:55;20.00;90.20
4749;DHT22;2388;53.582;9.962;2022-07-06T15:25:22;19.90;89.80
4749;DHT22;2388;53.582;9.962;2022-07-06T15:27:50;19.90;90.80
4749;DHT22;2388;53.582;9.962;2022-07-06T15:30:16;19.90;91.00
4749;DHT22;2388;53.582;9.962;2022-07-06T15:32:41;19.80;90.50
4749;DHT22;2388;53.582;9.962;2022-07-06T15:35:07;19.80;91.20
4749;DHT22;2388;53.582;9.962;2022-07-06T15:37:33;19.70;90.40
4749;DHT22;2388;53.582;9.962;2022-07-06T15:40:00;19.70;91.00
4749;DHT22;2388;53.582;9.962;2022-07-06T15:42:26;19.70;91.70
4749;DHT22;2388;53.582;9.962;2022-07-06T15:44:51;19.60;91.40
4749;DHT22;2388;53.582;9.962;2022-07-06T15:47:18;19.70;92.10
4749;DHT22;2388;53.582;9.962;2022-07-06T15:49:44;19.60;91.90
4749;DHT22;2388;53.582;9.962;2022-07-06T15:52:11;19.60;91.70
4749;DHT22;2388;53.582;9.962;2022-07-06T15:54:36;19.60;92.20
4749;DHT22;2388;53.582;9.962;2022-07-06T15:57:02;19.70;92.00
4749;DHT22;2388;53.582;9.962;2022-07-06T15:59:29;19.70;92.00
4749;DHT22;2388;53.582;9.962;2022-07-06T16:01:54;19.70;92.30
4749;DHT22;2388;53.582;9.962;2022-07-06T16:04:20;19.70;91.90
4749;DHT22;2388;53.582;9.962;2022-07-06T16:06:46;19.70;91.70
4749;DHT22;2388;53.582;9.962;2022-07-06T16:09:12;19.80;92.20
4749;DHT22;2388;53.582;9.962;2022-07-06T16:11:37;19.80;92.40
4749;DHT22;2388;53.582;9.962;2022-07-06T16:14:03;19.80;92.10
4749;DHT22;2388;53.582;9.962;2022-07-06T16:16:28;19.80;92.50
4749;DHT22;2388;53.582;9.962;2022-07-06T16:18:54;19.80;92.30
4749;DHT22;2388;53.582;9.962;2022-07-06T16:21:19;19.80;92.60
4749;DHT22;2388;53.582;9.962;2022-07-06T16:23:45;19.70;92.30
4749;DHT22;2388;53.582;9.962;2022-07-06T16:26:11;19.80;91.60
4749;DHT22;2388;53.582;9.962;2022-07-06T16:28:37;19.70;91.20
4749;DHT22;2388;53.582;9.962;2022-07-06T16:31:03;19.70;91.50
4749;DHT22;2388;53.582;9.962;2022-07-06T16:33:29;19.70;91.90
4749;DHT22;2388;53.582;9.962;2022-07-06T16:36:06;19.80;91.70
4749;DHT22;2388;53.582;9.962;2022-07-06T16:38:32;19.70;91.20
4749;DHT22;2388;53.582;9.962;2022-07-06T16:40:58;19.70;91.00
4749;DHT22;2388;53.582;9.962;2022-07-06T16:43:23;19.70;90.70
4749;DHT22;2388;53.582;9.962;2022-07-06T16:45:49;19.70;90.80
4749;DHT22;2388;53.582;9.962;2022-07-06T16:48:16;19.70;90.90
4749;DHT22;2388;53.582;9.962;2022-07-06T16:50:42;19.70;91.20
4749;DHT22;2388;53.582;9.962;2022-07-06T16:53:08;19.60;91.60
4749;DHT22;2388;53.582;9.962;2022-07-06T16:55:34;19.60;90.90
4749;DHT22;2388;53.582;9.962;2022-07-06T16:57:59;19.60;90.50
4749;DHT22;2388;53.582;9.962;2022-07-06T17:00:25;19.50;90.50
4749;DHT22;2388;53.582;9.962;2022-07-06T17:02:52;19.50;90.50